Аэропорт: Астана. Астана

ICAO: UACC

METAR:
2019/01/21 23:00
UACC 212300Z 24002MPS 6000 -SN BKN003 OVC020 M14/M16 Q1026 R22/35//55 NOSIG RMK QBB090 QFE738/0984
METAR:
2019/01/21 18:18
TAF UACC 211700Z 2118/2218 26005MPS 3000 BR SCT007 BKN020 TXM09/2210Z TNM19/2201Z 
      TEMPO 2118/2204 0300 -SN FZFG VV002 
     FM220600 19005MPS 6000 SCT010 BKN030 
      TEMPO 2214/2218 3000 BR SCT004